createdAt,value
2019-05-28T00:00:02.509Z,17.02
2019-05-28T00:02:27.234Z,17.03
2019-05-28T00:04:55.704Z,17.03
2019-05-28T00:07:24.166Z,17.06
2019-05-28T00:09:52.583Z,17.06
2019-05-28T00:12:21.327Z,17.06
2019-05-28T00:14:50.013Z,17.02
2019-05-28T00:17:18.780Z,17.02
2019-05-28T00:19:47.587Z,17.00
2019-05-28T00:22:16.077Z,17.00
2019-05-28T00:24:44.863Z,17.01
2019-05-28T00:27:13.319Z,16.98
2019-05-28T00:29:42.033Z,17.00
2019-05-28T00:32:10.403Z,16.96
2019-05-28T00:34:38.829Z,16.99
2019-05-28T00:37:08.089Z,16.93
2019-05-28T00:39:36.636Z,16.90
2019-05-28T00:42:05.540Z,16.89
2019-05-28T00:44:34.055Z,16.90
2019-05-28T00:47:02.508Z,16.88
2019-05-28T00:49:30.989Z,16.89
2019-05-28T00:51:59.449Z,16.87
2019-05-28T00:54:28.087Z,16.87
2019-05-28T00:56:56.986Z,16.84
2019-05-28T00:59:25.544Z,16.86
2019-05-28T01:01:53.929Z,16.79
2019-05-28T01:04:22.330Z,16.76
2019-05-28T01:06:52.386Z,16.71
2019-05-28T01:09:20.833Z,16.68
2019-05-28T01:11:49.263Z,16.68
2019-05-28T01:14:17.830Z,16.66
2019-05-28T01:16:46.265Z,16.66
2019-05-28T01:19:14.722Z,16.61
2019-05-28T01:21:43.119Z,16.55
2019-05-28T01:24:11.516Z,16.54
2019-05-28T01:26:39.908Z,16.52
2019-05-28T01:29:08.380Z,16.49
2019-05-28T01:31:36.745Z,16.46
2019-05-28T01:34:05.302Z,16.48
2019-05-28T01:36:33.690Z,16.47
2019-05-28T01:39:02.171Z,16.44
2019-05-28T01:41:30.887Z,16.43
2019-05-28T01:43:59.292Z,16.43
2019-05-28T01:46:27.732Z,16.36
2019-05-28T01:48:56.122Z,16.33
2019-05-28T01:51:24.929Z,16.34
2019-05-28T01:53:53.815Z,16.31
2019-05-28T01:56:22.260Z,16.33
2019-05-28T01:58:50.730Z,16.30
2019-05-28T02:01:19.176Z,16.27
2019-05-28T02:03:48.794Z,16.29
2019-05-28T02:06:17.249Z,16.28
2019-05-28T02:08:45.705Z,16.27
2019-05-28T02:11:14.181Z,16.29
2019-05-28T02:13:42.672Z,16.29
2019-05-28T02:16:11.051Z,16.27
2019-05-28T02:18:39.475Z,16.29
2019-05-28T02:21:07.836Z,16.33
2019-05-28T02:23:36.338Z,16.33
2019-05-28T02:26:05.009Z,16.30
2019-05-28T02:28:33.481Z,16.30
2019-05-28T02:31:01.907Z,16.27
2019-05-28T02:33:30.346Z,16.27
2019-05-28T02:35:58.730Z,16.26
2019-05-28T02:38:27.277Z,16.23
2019-05-28T02:40:55.784Z,16.22
2019-05-28T02:43:24.269Z,16.19
2019-05-28T02:45:52.702Z,16.15
2019-05-28T02:48:21.089Z,16.16
2019-05-28T02:51:00.039Z,16.16
2019-05-28T02:53:29.361Z,16.16
2019-05-28T02:55:58.450Z,16.13
2019-05-28T02:58:29.635Z,16.10
2019-05-28T03:00:59.052Z,16.09
2019-05-28T03:03:32.408Z,16.08
2019-05-28T03:06:00.989Z,16.05
2019-05-28T03:08:33.081Z,16.07
2019-05-28T03:11:04.150Z,16.02
2019-05-28T03:13:32.538Z,16.06
2019-05-28T03:16:02.518Z,16.04
2019-05-28T03:18:31.036Z,16.03
2019-05-28T03:21:00.727Z,16.02
2019-05-28T03:23:30.671Z,16.06
2019-05-28T03:25:59.222Z,16.05
2019-05-28T03:28:27.680Z,16.10
2019-05-28T03:30:56.160Z,16.05
2019-05-28T03:33:24.853Z,16.04
2019-05-28T03:35:55.024Z,15.90
2019-05-28T03:38:25.761Z,15.93
2019-05-28T03:40:54.222Z,15.95
2019-05-28T03:43:22.643Z,15.96
2019-05-28T03:45:51.465Z,15.95
2019-05-28T03:48:19.967Z,15.98
2019-05-28T03:50:48.452Z,15.98
2019-05-28T03:53:16.903Z,15.95
2019-05-28T03:55:45.343Z,15.94
2019-05-28T03:58:13.856Z,15.94
2019-05-28T04:00:42.340Z,15.87
2019-05-28T04:03:10.772Z,15.83
2019-05-28T04:05:39.248Z,15.87
2019-05-28T04:08:07.807Z,15.89
2019-05-28T04:10:36.504Z,15.93
2019-05-28T04:13:05.515Z,15.95
2019-05-28T04:15:34.456Z,15.93
2019-05-28T04:18:02.974Z,15.96
2019-05-28T04:20:31.377Z,15.96
2019-05-28T04:22:59.817Z,15.99
2019-05-28T04:25:28.304Z,16.03
2019-05-28T04:27:56.997Z,16.06
2019-05-28T04:30:25.468Z,16.09
2019-05-28T04:32:53.914Z,16.09
2019-05-28T04:35:22.370Z,16.10
2019-05-28T04:37:50.891Z,16.12
2019-05-28T04:40:19.359Z,16.18
2019-05-28T04:42:47.801Z,16.21
2019-05-28T04:45:17.456Z,16.23
2019-05-28T04:47:46.289Z,16.24
2019-05-28T04:50:18.351Z,16.25
2019-05-28T04:52:46.909Z,16.19
2019-05-28T04:55:15.461Z,16.24
2019-05-28T04:57:43.907Z,16.29
2019-05-28T05:00:12.437Z,16.34
2019-05-28T05:02:57.686Z,16.32
2019-05-28T05:05:11.243Z,16.37
2019-05-28T05:07:39.714Z,16.48
2019-05-28T05:10:08.455Z,16.50
2019-05-28T05:12:36.999Z,16.56
2019-05-28T05:15:06.643Z,16.58
2019-05-28T05:17:35.064Z,16.63
2019-05-28T05:20:05.462Z,16.65
2019-05-28T05:22:33.860Z,16.80
2019-05-28T05:25:02.346Z,16.91
2019-05-28T05:27:31.017Z,16.96
2019-05-28T05:29:59.440Z,17.04
2019-05-28T05:32:28.287Z,17.10
2019-05-28T05:34:56.726Z,17.12
2019-05-28T05:37:25.263Z,17.12
2019-05-28T05:39:53.649Z,17.19
2019-05-28T05:42:22.534Z,17.25
2019-05-28T05:44:51.025Z,17.20
2019-05-28T05:47:19.806Z,17.12
2019-05-28T05:49:48.352Z,17.19
2019-05-28T05:52:16.828Z,17.24
2019-05-28T05:54:45.242Z,17.25
2019-05-28T05:57:13.750Z,17.29
2019-05-28T05:59:42.159Z,17.31
2019-05-28T06:02:10.529Z,17.34
2019-05-28T06:04:45.585Z,17.15
2019-05-28T06:07:14.069Z,17.26
2019-05-28T06:09:42.488Z,17.28
2019-05-28T06:12:10.873Z,17.32
2019-05-28T06:14:40.140Z,17.38
2019-05-28T06:17:08.519Z,17.50
2019-05-28T06:19:36.944Z,17.56
2019-05-28T06:22:05.572Z,17.76
2019-05-28T06:24:33.982Z,17.90
2019-05-28T06:27:02.430Z,18.02
2019-05-28T06:29:30.892Z,18.01
2019-05-28T06:31:59.280Z,18.03
2019-05-28T06:34:27.742Z,18.02
2019-05-28T06:36:56.625Z,18.03
2019-05-28T06:39:25.088Z,18.00
2019-05-28T06:41:53.452Z,18.09
2019-05-28T06:44:21.943Z,18.11
2019-05-28T06:46:50.537Z,18.03
2019-05-28T06:49:19.011Z,17.96
2019-05-28T06:51:47.469Z,18.05
2019-05-28T06:54:15.870Z,18.19
2019-05-28T06:56:44.577Z,18.38
2019-05-28T06:59:13.778Z,18.46
2019-05-28T07:01:42.563Z,18.46
2019-05-28T07:04:15.904Z,18.47
2019-05-28T07:06:41.463Z,18.48
2019-05-28T07:09:10.161Z,18.57
2019-05-28T07:11:38.624Z,18.63
2019-05-28T07:14:07.411Z,18.49
2019-05-28T07:16:49.993Z,18.37
2019-05-28T07:19:23.066Z,18.39
2019-05-28T07:21:36.564Z,18.46
2019-05-28T07:24:05.362Z,18.47
2019-05-28T07:26:33.836Z,18.45
2019-05-28T07:29:02.218Z,18.41
2019-05-28T07:31:30.671Z,18.45
2019-05-28T07:33:59.136Z,18.49
2019-05-28T07:36:27.519Z,18.65
2019-05-28T07:38:55.982Z,18.71
2019-05-28T07:41:24.445Z,18.97
2019-05-28T07:43:52.918Z,19.03
2019-05-28T07:46:21.321Z,19.10
2019-05-28T07:48:49.829Z,19.15
2019-05-28T07:51:18.327Z,19.15
2019-05-28T07:53:47.052Z,19.31
2019-05-28T07:56:15.535Z,19.36
2019-05-28T07:58:43.913Z,19.30
2019-05-28T08:01:12.365Z,19.36
2019-05-28T08:03:40.850Z,19.57
2019-05-28T08:06:09.332Z,19.63
2019-05-28T08:08:37.774Z,19.62
2019-05-28T08:11:06.169Z,19.82
2019-05-28T08:13:40.706Z,19.94
2019-05-28T08:16:23.880Z,19.60
2019-05-28T08:18:35.358Z,19.79
2019-05-28T08:21:03.846Z,20.20
2019-05-28T08:23:32.627Z,20.21
2019-05-28T08:26:01.897Z,20.19
2019-05-28T08:28:30.646Z,19.34
2019-05-28T08:31:14.118Z,18.60
2019-05-28T08:33:29.314Z,18.87
2019-05-28T08:35:57.769Z,19.06
2019-05-28T08:38:26.373Z,19.20
2019-05-28T08:40:54.791Z,19.09
2019-05-28T08:43:23.339Z,19.18
2019-05-28T08:45:51.834Z,19.16
2019-05-28T08:48:20.318Z,18.97
2019-05-28T08:50:48.932Z,19.12
2019-05-28T08:53:17.788Z,18.87
2019-05-28T08:55:46.474Z,18.82
2019-05-28T08:58:14.992Z,18.96
2019-05-28T09:00:44.467Z,19.00
2019-05-28T09:03:13.216Z,19.26
2019-05-28T09:05:41.800Z,19.44
2019-05-28T09:08:10.440Z,19.60
2019-05-28T09:10:38.876Z,19.68
2019-05-28T09:13:07.402Z,19.77
2019-05-28T09:15:35.949Z,19.85
2019-05-28T09:18:04.776Z,19.79
2019-05-28T09:20:33.314Z,19.78
2019-05-28T09:23:01.812Z,19.79
2019-05-28T09:25:30.293Z,19.90
2019-05-28T09:27:58.803Z,19.92
2019-05-28T09:30:27.348Z,19.84
2019-05-28T09:32:55.787Z,19.94
2019-05-28T09:35:24.247Z,19.98
2019-05-28T09:37:52.693Z,19.95
2019-05-28T09:40:22.712Z,20.04
2019-05-28T09:42:51.426Z,20.04
2019-05-28T09:45:22.856Z,20.10
2019-05-28T09:47:50.150Z,20.23
2019-05-28T09:50:30.026Z,20.25
2019-05-28T09:52:54.996Z,20.13
2019-05-28T09:55:20.045Z,20.13
2019-05-28T09:57:48.481Z,20.10
2019-05-28T10:00:21.036Z,20.36
2019-05-28T10:02:50.608Z,20.29
2019-05-28T10:05:19.727Z,20.31
2019-05-28T10:07:48.745Z,20.32
2019-05-28T10:10:17.447Z,20.29
2019-05-28T10:12:46.495Z,20.52
2019-05-28T10:15:19.024Z,20.58
2019-05-28T10:17:47.547Z,20.83
2019-05-28T10:20:16.825Z,21.05
2019-05-28T10:22:45.274Z,21.12
2019-05-28T10:25:13.980Z,21.26
2019-05-28T10:27:59.243Z,21.24
2019-05-28T10:30:14.898Z,21.34
2019-05-28T10:32:43.300Z,21.53
2019-05-28T10:35:12.601Z,21.52
2019-05-28T10:37:41.487Z,21.27
2019-05-28T10:40:10.701Z,21.45
2019-05-28T10:42:39.137Z,21.75
2019-05-28T10:45:11.405Z,21.88
2019-05-28T10:47:39.935Z,21.73
2019-05-28T10:50:10.022Z,22.15
2019-05-28T10:52:38.841Z,22.60
2019-05-28T10:55:08.471Z,22.66
2019-05-28T10:57:37.141Z,22.63
2019-05-28T11:00:07.157Z,22.39
2019-05-28T11:02:35.609Z,22.24
2019-05-28T11:05:05.742Z,22.18
2019-05-28T11:07:34.193Z,21.91
2019-05-28T11:10:02.924Z,21.43
2019-05-28T11:12:31.491Z,21.36
2019-05-28T11:14:59.889Z,21.29
2019-05-28T11:17:28.316Z,20.93
2019-05-28T11:19:57.161Z,20.88
2019-05-28T11:22:25.846Z,20.84
2019-05-28T11:24:54.261Z,20.92
2019-05-28T11:27:24.130Z,21.17
2019-05-28T11:29:52.817Z,21.33
2019-05-28T11:32:21.285Z,21.41
2019-05-28T11:34:49.940Z,21.34
2019-05-28T11:37:18.455Z,21.23
2019-05-28T11:39:46.934Z,20.97
2019-05-28T11:42:15.308Z,20.78
2019-05-28T11:44:43.750Z,20.74
2019-05-28T11:47:12.281Z,20.67
2019-05-28T11:49:40.671Z,20.63
2019-05-28T11:52:09.141Z,20.59
2019-05-28T11:54:37.966Z,20.34
2019-05-28T11:57:06.408Z,20.28
2019-05-28T11:59:35.135Z,20.27
2019-05-28T12:02:05.300Z,20.36
2019-05-28T12:04:33.845Z,20.27
2019-05-28T12:07:02.298Z,20.22
2019-05-28T12:09:31.005Z,20.22
2019-05-28T12:11:59.541Z,20.29
2019-05-28T12:14:28.014Z,20.79
2019-05-28T12:16:56.522Z,21.94
2019-05-28T12:19:24.991Z,22.29
2019-05-28T12:21:53.441Z,22.84
2019-05-28T12:24:22.067Z,22.86
2019-05-28T12:26:50.560Z,22.29
2019-05-28T12:29:19.061Z,21.71
2019-05-28T12:31:47.599Z,21.21
2019-05-28T12:34:16.071Z,21.31
2019-05-28T12:36:44.662Z,21.20
2019-05-28T12:39:13.116Z,21.37
2019-05-28T12:41:41.495Z,21.54
2019-05-28T12:44:10.369Z,22.03
2019-05-28T12:46:38.961Z,22.64
2019-05-28T12:49:07.642Z,22.99
2019-05-28T12:51:36.449Z,23.63
2019-05-28T12:54:05.440Z,24.16
2019-05-28T12:56:33.982Z,24.26
2019-05-28T12:59:02.445Z,25.03
2019-05-28T13:01:31.106Z,25.73
2019-05-28T13:03:59.506Z,25.33
2019-05-28T13:06:28.364Z,24.53
2019-05-28T13:08:57.149Z,24.12
2019-05-28T13:11:25.633Z,23.60
2019-05-28T13:13:54.011Z,23.11
2019-05-28T13:16:22.546Z,22.60
2019-05-28T13:18:51.009Z,22.13
2019-05-28T13:21:19.553Z,21.50
2019-05-28T13:23:48.113Z,21.35
2019-05-28T13:26:16.601Z,21.58
2019-05-28T13:28:45.309Z,22.64
2019-05-28T13:31:13.785Z,23.32
2019-05-28T13:33:42.582Z,23.62
2019-05-28T13:36:11.057Z,23.40
2019-05-28T13:38:42.726Z,22.92
2019-05-28T13:41:09.798Z,22.71
2019-05-28T13:43:38.173Z,22.86
2019-05-28T13:46:06.642Z,23.00
2019-05-28T13:48:35.075Z,23.39
2019-05-28T13:51:03.533Z,24.03
2019-05-28T13:53:31.974Z,24.26
2019-05-28T13:56:00.687Z,24.59
2019-05-28T13:58:29.127Z,24.58
2019-05-28T14:00:57.559Z,24.96
2019-05-28T14:03:26.358Z,25.51
2019-05-28T14:05:54.994Z,26.09
2019-05-28T14:08:23.413Z,26.71
2019-05-28T14:10:55.954Z,27.16
2019-05-28T14:13:24.336Z,26.95
2019-05-28T14:15:52.799Z,27.16
2019-05-28T14:18:21.325Z,27.08
2019-05-28T14:20:49.785Z,26.95
2019-05-28T14:23:18.248Z,26.61
2019-05-28T14:25:46.792Z,25.68
2019-05-28T14:28:15.246Z,24.71
2019-05-28T14:30:58.794Z,24.34
2019-05-28T14:33:13.815Z,23.95
2019-05-28T14:35:42.426Z,23.78
2019-05-28T14:38:10.930Z,23.83
2019-05-28T14:40:39.569Z,23.69
2019-05-28T14:43:08.101Z,23.41
2019-05-28T14:45:36.969Z,22.93
2019-05-28T14:48:05.524Z,22.25
2019-05-28T14:50:34.118Z,22.15
2019-05-28T14:53:02.625Z,22.04
2019-05-28T14:55:31.310Z,22.06
2019-05-28T14:57:59.730Z,22.28
2019-05-28T15:00:28.174Z,22.28
2019-05-28T15:02:56.637Z,22.24
2019-05-28T15:05:25.013Z,22.20
2019-05-28T15:07:53.705Z,22.27
2019-05-28T15:10:23.028Z,22.31
2019-05-28T15:12:51.589Z,22.28
2019-05-28T15:15:34.472Z,22.26
2019-05-28T15:17:50.925Z,22.09
2019-05-28T15:20:19.942Z,21.87
2019-05-28T15:22:48.535Z,21.73
2019-05-28T15:25:17.109Z,21.61
2019-05-28T15:27:45.624Z,21.46
2019-05-28T15:30:15.755Z,21.33
2019-05-28T15:32:44.233Z,21.15
2019-05-28T15:35:13.552Z,21.04
2019-05-28T15:37:42.117Z,21.09
2019-05-28T15:40:12.658Z,21.00
2019-05-28T15:42:42.848Z,21.02
2019-05-28T15:45:12.029Z,21.11
2019-05-28T15:47:44.440Z,21.09
2019-05-28T15:50:11.605Z,20.99
2019-05-28T15:52:40.551Z,20.89
2019-05-28T15:55:09.573Z,20.85
2019-05-28T15:57:38.316Z,20.84
2019-05-28T16:00:12.078Z,20.81
2019-05-28T16:02:40.683Z,20.78
2019-05-28T16:05:09.083Z,20.75
2019-05-28T16:07:37.650Z,20.79
2019-05-28T16:10:08.320Z,20.80
2019-05-28T16:12:36.869Z,20.82
2019-05-28T16:15:07.182Z,20.87
2019-05-28T16:17:36.002Z,20.78
2019-05-28T16:20:06.505Z,20.73
2019-05-28T16:22:35.040Z,20.68
2019-05-28T16:25:05.536Z,20.63
2019-05-28T16:27:34.046Z,20.55
2019-05-28T16:30:03.152Z,20.51
2019-05-28T16:32:31.606Z,20.50
2019-05-28T16:35:00.505Z,20.56
2019-05-28T16:37:29.314Z,20.59
2019-05-28T16:40:13.592Z,20.72
2019-05-28T16:42:28.463Z,20.63
2019-05-28T16:44:56.967Z,20.71
2019-05-28T16:47:25.538Z,20.68
2019-05-28T16:49:53.940Z,20.64
2019-05-28T16:52:22.853Z,20.59
2019-05-28T16:54:51.649Z,20.41
2019-05-28T16:57:20.438Z,20.30
2019-05-28T16:59:49.216Z,20.21
2019-05-28T17:02:17.655Z,20.14
2019-05-28T17:04:46.070Z,20.07
2019-05-28T17:07:14.597Z,19.96
2019-05-28T17:09:43.074Z,19.91
2019-05-28T17:12:11.546Z,19.99
2019-05-28T17:14:40.312Z,19.95
2019-05-28T17:17:08.775Z,19.76
2019-05-28T17:19:37.276Z,19.54
2019-05-28T17:22:05.707Z,19.44
2019-05-28T17:24:34.192Z,19.25
2019-05-28T17:27:02.582Z,19.20
2019-05-28T17:29:31.098Z,19.11
2019-05-28T17:31:59.898Z,19.07
2019-05-28T17:34:28.504Z,19.13
2019-05-28T17:36:57.377Z,19.11
2019-05-28T17:39:26.163Z,19.09
2019-05-28T17:41:54.703Z,19.06
2019-05-28T17:44:23.202Z,19.09
2019-05-28T17:46:51.600Z,18.96
2019-05-28T17:49:20.011Z,18.84
2019-05-28T17:51:48.496Z,18.88
2019-05-28T17:54:17.039Z,18.81
2019-05-28T17:56:45.522Z,18.74
2019-05-28T17:59:14.341Z,18.66
2019-05-28T18:01:46.334Z,18.67
2019-05-28T18:04:13.184Z,18.58
2019-05-28T18:06:41.684Z,18.59
2019-05-28T18:09:10.094Z,18.53
2019-05-28T18:11:38.513Z,18.49
2019-05-28T18:14:06.967Z,18.45
2019-05-28T18:16:35.327Z,18.36
2019-05-28T18:19:03.916Z,18.41
2019-05-28T18:21:32.415Z,18.31
2019-05-28T18:24:00.817Z,18.28
2019-05-28T18:26:29.256Z,18.25
2019-05-28T18:28:57.726Z,18.20
2019-05-28T18:31:26.311Z,18.26
2019-05-28T18:33:54.774Z,18.28
2019-05-28T18:36:23.374Z,18.20
2019-05-28T18:38:51.779Z,18.23
2019-05-28T18:41:21.953Z,18.21
2019-05-28T18:43:51.103Z,18.11
2019-05-28T18:46:19.555Z,18.05
2019-05-28T18:48:48.021Z,18.06
2019-05-28T18:51:16.526Z,18.00
2019-05-28T18:53:45.003Z,17.97
2019-05-28T18:56:17.548Z,17.89
2019-05-28T18:58:43.736Z,17.87
2019-05-28T19:01:12.208Z,17.94
2019-05-28T19:03:40.591Z,17.78
2019-05-28T19:06:09.071Z,17.72
2019-05-28T19:08:37.877Z,17.66
2019-05-28T19:11:06.458Z,17.51
2019-05-28T19:13:34.905Z,17.46
2019-05-28T19:16:03.427Z,17.31
2019-05-28T19:18:31.886Z,17.33
2019-05-28T19:21:00.352Z,17.31
2019-05-28T19:23:28.886Z,17.34
2019-05-28T19:25:57.665Z,17.17
2019-05-28T19:28:26.198Z,17.19
2019-05-28T19:30:54.666Z,17.20
2019-05-28T19:33:23.247Z,17.16
2019-05-28T19:35:51.718Z,17.16
2019-05-28T19:38:20.407Z,17.08
2019-05-28T19:40:48.849Z,17.08
2019-05-28T19:43:17.313Z,17.00
2019-05-28T19:45:46.640Z,16.93
2019-05-28T19:48:15.119Z,16.65
2019-05-28T19:50:43.705Z,16.63
2019-05-28T19:53:12.057Z,16.67
2019-05-28T19:55:40.655Z,16.71
2019-05-28T19:58:09.190Z,16.70
2019-05-28T20:00:37.698Z,16.71
2019-05-28T20:03:06.211Z,16.78
2019-05-28T20:05:34.753Z,16.69
2019-05-28T20:08:08.372Z,16.66
2019-05-28T20:10:38.492Z,16.61
2019-05-28T20:13:09.764Z,16.63
2019-05-28T20:15:38.635Z,16.56
2019-05-28T20:18:07.167Z,16.51
2019-05-28T20:20:35.705Z,16.50
2019-05-28T20:23:04.232Z,16.43
2019-05-28T20:25:33.427Z,16.42
2019-05-28T20:28:01.802Z,16.46
2019-05-28T20:30:30.277Z,16.43
2019-05-28T20:32:59.143Z,16.38
2019-05-28T20:35:30.975Z,16.34
2019-05-28T20:37:58.041Z,16.30
2019-05-28T20:40:26.495Z,16.32
2019-05-28T20:42:54.882Z,16.31
2019-05-28T20:45:23.535Z,16.28
2019-05-28T20:47:51.995Z,16.23
2019-05-28T20:50:20.708Z,16.24
2019-05-28T20:52:49.237Z,16.28
2019-05-28T20:55:18.027Z,16.26
2019-05-28T20:57:47.107Z,16.22
2019-05-28T21:00:15.736Z,16.15
2019-05-28T21:02:44.187Z,16.16
2019-05-28T21:05:12.744Z,16.16
2019-05-28T21:07:41.191Z,16.09
2019-05-28T21:10:10.076Z,16.05
2019-05-28T21:12:44.358Z,16.10
2019-05-28T21:15:09.194Z,15.99
2019-05-28T21:17:37.653Z,15.94
2019-05-28T21:20:09.011Z,15.79
2019-05-28T21:22:37.388Z,15.79
2019-05-28T21:25:06.618Z,15.76
2019-05-28T21:27:35.149Z,15.72
2019-05-28T21:30:05.537Z,15.70
2019-05-28T21:32:33.934Z,15.65
2019-05-28T21:35:02.804Z,15.61
2019-05-28T21:37:31.283Z,15.57
2019-05-28T21:39:59.737Z,15.57
2019-05-28T21:42:28.461Z,15.57
2019-05-28T21:44:58.041Z,15.55
2019-05-28T21:47:26.590Z,15.59
2019-05-28T21:49:55.001Z,15.55
2019-05-28T21:52:23.406Z,15.53
2019-05-28T21:54:52.921Z,15.48
2019-05-28T21:57:21.451Z,15.48
2019-05-28T21:59:50.461Z,15.50
2019-05-28T22:02:19.070Z,15.46
2019-05-28T22:04:47.552Z,15.43
2019-05-28T22:07:15.978Z,15.45
2019-05-28T22:09:44.433Z,15.53
2019-05-28T22:12:13.132Z,15.48
2019-05-28T22:14:41.578Z,15.41
2019-05-28T22:17:12.724Z,15.43
2019-05-28T22:19:40.343Z,15.39
2019-05-28T22:22:09.096Z,15.32
2019-05-28T22:24:37.637Z,15.25
2019-05-28T22:27:06.072Z,15.26
2019-05-28T22:29:34.538Z,15.20
2019-05-28T22:32:03.002Z,15.15
2019-05-28T22:34:31.541Z,15.16
2019-05-28T22:37:00.275Z,15.20
2019-05-28T22:39:29.714Z,15.19
2019-05-28T22:41:59.518Z,15.14
2019-05-28T22:44:28.118Z,15.12
2019-05-28T22:46:57.068Z,15.11
2019-05-28T22:49:25.666Z,15.11
2019-05-28T22:51:54.042Z,15.06
2019-05-28T22:54:22.746Z,15.05
2019-05-28T22:56:51.114Z,15.06
2019-05-28T22:59:19.559Z,15.04
2019-05-28T23:01:48.007Z,15.01
2019-05-28T23:04:16.449Z,14.99
2019-05-28T23:06:44.914Z,14.98
2019-05-28T23:09:13.411Z,14.96
2019-05-28T23:11:41.874Z,14.87
2019-05-28T23:14:10.389Z,14.89
2019-05-28T23:16:38.884Z,14.89
2019-05-28T23:19:08.639Z,14.87
2019-05-28T23:21:37.204Z,14.87
2019-05-28T23:24:05.632Z,14.82
2019-05-28T23:26:34.116Z,14.79
2019-05-28T23:29:03.629Z,14.76
2019-05-28T23:31:32.178Z,14.73
2019-05-28T23:34:00.625Z,14.72
2019-05-28T23:36:29.051Z,14.71
2019-05-28T23:38:57.784Z,14.71
2019-05-28T23:41:26.336Z,14.64
2019-05-28T23:44:02.030Z,14.59
2019-05-28T23:46:24.895Z,14.54
2019-05-28T23:48:53.370Z,14.54
2019-05-28T23:51:21.796Z,14.54
2019-05-28T23:53:50.228Z,14.56
2019-05-28T23:56:18.792Z,14.54
2019-05-28T23:58:47.316Z,14.50
